createdAt,value
2016-04-16T00:00:57.461Z,2
2016-04-16T00:04:10.033Z,2
2016-04-16T00:07:22.324Z,2
2016-04-16T00:10:40.192Z,2
2016-04-16T00:13:41.606Z,2
2016-04-16T00:16:53.709Z,2
2016-04-16T00:20:05.482Z,2
2016-04-16T00:23:17.649Z,2
2016-04-16T00:26:35.986Z,2
2016-04-16T00:29:37.009Z,2
2016-04-16T00:32:49.204Z,2
2016-04-16T00:36:04.103Z,2
2016-04-16T00:39:13.113Z,5
2016-04-16T00:42:25.434Z,5
2016-04-16T00:45:37.848Z,5
2016-04-16T00:48:50.107Z,5
2016-04-16T00:52:02.568Z,5
2016-04-16T00:55:14.673Z,5
2016-04-16T00:58:32.853Z,5
2016-04-16T01:01:40.016Z,5
2016-04-16T01:04:41.322Z,5
2016-04-16T01:07:53.314Z,5
2016-04-16T01:11:05.619Z,5
2016-04-16T01:14:17.833Z,5
2016-04-16T01:17:33.153Z,5
2016-04-16T01:20:40.208Z,5
2016-04-16T01:23:41.342Z,5
2016-04-16T01:26:53.364Z,5
2016-04-16T01:30:05.498Z,5
2016-04-16T01:33:17.696Z,5
2016-04-16T01:36:35.751Z,5
2016-04-16T01:39:36.977Z,5
2016-04-16T01:42:49.032Z,5
2016-04-16T01:46:01.026Z,5
2016-04-16T01:49:12.787Z,5
2016-04-16T01:52:24.997Z,5
2016-04-16T01:55:37.084Z,5
2016-04-16T01:58:49.404Z,5
2016-04-16T02:02:01.755Z,5
2016-04-16T02:05:14.020Z,5
2016-04-16T02:08:32.231Z,5
2016-04-16T02:11:39.600Z,5
2016-04-16T02:14:40.826Z,5
2016-04-16T02:17:52.880Z,5
2016-04-16T02:21:04.983Z,5
2016-04-16T02:24:17.230Z,5
2016-04-16T02:27:35.488Z,5
2016-04-16T02:30:36.543Z,5
2016-04-16T02:33:48.426Z,5
2016-04-16T02:37:00.512Z,5
2016-04-16T02:40:12.664Z,5
2016-04-16T02:43:21.655Z,5
2016-04-16T02:46:39.962Z,5
2016-04-16T02:49:41.228Z,5
2016-04-16T02:52:53.189Z,5
2016-04-16T02:56:05.083Z,5
2016-04-16T02:59:17.629Z,5
2016-04-16T03:02:35.472Z,5
2016-04-16T03:05:36.717Z,5
2016-04-16T03:08:49.071Z,5
2016-04-16T03:12:01.409Z,5
2016-04-16T03:15:13.404Z,5
2016-04-16T03:18:25.662Z,5
2016-04-16T03:21:37.874Z,5
2016-04-16T03:24:50.225Z,5
2016-04-16T03:28:02.358Z,6
2016-04-16T03:31:14.322Z,6
2016-04-16T03:34:32.690Z,7
2016-04-16T03:37:39.917Z,9
2016-04-16T03:40:41.081Z,9
2016-04-16T03:43:53.387Z,11
2016-04-16T03:47:05.675Z,16
2016-04-16T03:50:17.702Z,19
2016-04-16T03:53:35.881Z,21
2016-04-16T03:56:36.999Z,32
2016-04-16T03:59:49.163Z,37
2016-04-16T04:03:01.249Z,44
2016-04-16T04:06:13.210Z,58
2016-04-16T04:09:25.487Z,83
2016-04-16T04:12:41.792Z,115
2016-04-16T04:15:42.878Z,157
2016-04-16T04:18:55.089Z,206
2016-04-16T04:22:07.207Z,264
2016-04-16T04:25:19.405Z,354
2016-04-16T04:28:37.304Z,470
2016-04-16T04:31:38.452Z,552
2016-04-16T04:34:50.602Z,586
2016-04-16T04:38:02.766Z,681
2016-04-16T04:41:12.242Z,741
2016-04-16T04:44:24.581Z,874
2016-04-16T04:47:36.698Z,1025
2016-04-16T04:50:48.394Z,1053
2016-04-16T04:54:00.762Z,1187
2016-04-16T04:57:13.222Z,1351
2016-04-16T05:00:25.249Z,1656
2016-04-16T05:03:37.194Z,1922
2016-04-16T05:06:49.515Z,1768
2016-04-16T05:09:58.635Z,1878
2016-04-16T05:13:10.707Z,2001
2016-04-16T05:16:22.654Z,2141
2016-04-16T05:19:41.084Z,2504
2016-04-16T05:22:42.593Z,2996
2016-04-16T05:25:54.882Z,3426
2016-04-16T05:29:07.187Z,3156
2016-04-16T05:32:21.730Z,3058
2016-04-16T05:35:37.987Z,2679
2016-04-16T05:38:39.370Z,3384
2016-04-16T05:41:52.097Z,3791
2016-04-16T05:45:04.932Z,3643
2016-04-16T05:48:17.398Z,3718
2016-04-16T05:51:35.889Z,3353
2016-04-16T05:54:37.803Z,3790
2016-04-16T05:57:50.561Z,4681
2016-04-16T06:01:03.367Z,5167
2016-04-16T06:04:16.299Z,6514
2016-04-16T06:07:33.229Z,6022
2016-04-16T06:10:41.284Z,7108
2016-04-16T06:13:43.465Z,3304
2016-04-16T06:16:56.629Z,6166
2016-04-16T06:20:06.793Z,5322
2016-04-16T06:23:19.929Z,6280
2016-04-16T06:26:39.171Z,7834
2016-04-16T06:29:41.804Z,384
2016-04-16T06:32:55.280Z,8436
2016-04-16T06:36:08.929Z,9406
2016-04-16T06:39:22.237Z,8238
2016-04-16T06:42:41.511Z,9710
2016-04-16T06:45:43.816Z,10437
2016-04-16T06:48:56.527Z,6477
2016-04-16T06:52:09.348Z,5087
2016-04-16T06:55:20.687Z,3603
2016-04-16T06:58:39.242Z,3764
2016-04-16T07:01:41.328Z,3989
2016-04-16T07:04:54.664Z,4867
2016-04-16T07:08:07.453Z,6980
2016-04-16T07:11:20.089Z,9394
2016-04-16T07:14:39.004Z,9922
2016-04-16T07:17:41.308Z,9759
2016-04-16T07:20:52.190Z,10645
2016-04-16T07:24:05.464Z,5596
2016-04-16T07:27:18.879Z,5777
2016-04-16T07:30:38.156Z,3060
2016-04-16T07:33:40.961Z,5714
2016-04-16T07:36:54.391Z,9752
2016-04-16T07:40:10.929Z,11475
2016-04-16T07:43:22.393Z,7990
2016-04-16T07:46:35.933Z,8333
2016-04-16T07:49:38.535Z,6344
2016-04-16T07:52:52.012Z,4587
2016-04-16T07:56:04.989Z,13421
2016-04-16T07:59:18.371Z,7590
2016-04-16T08:02:37.866Z,2626
2016-04-16T08:05:40.578Z,2398
2016-04-16T08:08:54.102Z,12054
2016-04-16T08:12:07.313Z,12293
2016-04-16T08:15:20.479Z,13391
2016-04-16T08:18:39.868Z,9895
2016-04-16T08:21:41.984Z,11706
2016-04-16T08:24:54.993Z,10032
2016-04-16T08:28:08.001Z,3620
2016-04-16T08:31:20.981Z,2931
2016-04-16T08:34:39.786Z,2327
2016-04-16T08:37:41.763Z,1593
2016-04-16T08:40:54.286Z,1301
2016-04-16T08:44:06.982Z,1273
2016-04-16T08:47:19.584Z,1180
2016-04-16T08:50:37.970Z,1317
2016-04-16T08:53:39.774Z,1449
2016-04-16T08:56:52.564Z,1504
2016-04-16T09:00:05.118Z,1517
2016-04-16T09:03:17.783Z,1915
2016-04-16T09:06:36.372Z,2048
2016-04-16T09:09:38.239Z,2267
2016-04-16T09:12:50.638Z,1785
2016-04-16T09:16:03.396Z,1910
2016-04-16T09:19:16.184Z,2194
2016-04-16T09:22:35.211Z,2281
2016-04-16T09:25:37.079Z,2605
2016-04-16T09:28:49.790Z,2988
2016-04-16T09:32:02.611Z,2946
2016-04-16T09:35:15.541Z,3254
2016-04-16T09:38:34.145Z,3399
2016-04-16T09:41:42.044Z,2621
2016-04-16T09:44:43.848Z,2635
2016-04-16T09:47:56.623Z,2488
2016-04-16T09:51:07.834Z,2476
2016-04-16T09:54:20.607Z,2743
2016-04-16T09:57:39.165Z,2762
2016-04-16T10:00:41.172Z,2810
2016-04-16T10:03:53.994Z,2934
2016-04-16T10:07:06.736Z,3237
2016-04-16T10:10:19.338Z,2934
2016-04-16T10:13:38.052Z,2384
2016-04-16T10:16:39.904Z,2593
2016-04-16T10:19:50.255Z,3053
2016-04-16T10:23:03.060Z,3111
2016-04-16T10:26:15.881Z,4507
2016-04-16T10:29:34.703Z,4644
2016-04-16T10:32:42.525Z,4420
2016-04-16T10:35:44.439Z,4176
2016-04-16T10:38:57.197Z,3979
2016-04-16T10:42:06.643Z,3808
2016-04-16T10:45:19.541Z,4223
2016-04-16T10:48:38.271Z,4434
2016-04-16T10:51:40.262Z,4533
2016-04-16T10:54:53.053Z,4563
2016-04-16T10:58:06.092Z,4787
2016-04-16T11:01:18.882Z,4782
2016-04-16T11:04:37.517Z,3917
2016-04-16T11:07:39.478Z,4889
2016-04-16T11:10:52.346Z,5113
2016-04-16T11:14:05.182Z,5016
2016-04-16T11:17:18.018Z,5183
2016-04-16T11:20:36.685Z,5110
2016-04-16T11:23:38.615Z,4918
2016-04-16T11:26:51.310Z,4860
2016-04-16T11:30:03.990Z,4694
2016-04-16T11:33:16.748Z,4317
2016-04-16T11:36:35.509Z,4336
2016-04-16T11:39:37.408Z,4306
2016-04-16T11:42:50.244Z,4558
2016-04-16T11:46:02.815Z,5064
2016-04-16T11:49:15.276Z,5513
2016-04-16T11:52:34.372Z,5658
2016-04-16T11:55:42.516Z,5330
2016-04-16T11:58:44.462Z,4977
2016-04-16T12:01:57.357Z,3899
2016-04-16T12:05:06.679Z,4351
2016-04-16T12:08:19.631Z,4317
2016-04-16T12:11:38.273Z,4376
2016-04-16T12:14:40.268Z,4781
2016-04-16T12:17:52.137Z,5093
2016-04-16T12:21:05.161Z,5363
2016-04-16T12:24:17.903Z,5464
2016-04-16T12:27:36.852Z,5779
2016-04-16T12:30:38.782Z,5651
2016-04-16T12:33:51.821Z,5107
2016-04-16T12:37:04.563Z,4877
2016-04-16T12:40:16.431Z,4817
2016-04-16T12:43:35.129Z,4882
2016-04-16T12:46:37.043Z,5033
2016-04-16T12:49:49.692Z,5433
2016-04-16T12:53:00.997Z,5638
2016-04-16T12:56:13.692Z,6289
2016-04-16T12:59:26.435Z,7017
2016-04-16T13:02:39.086Z,7812
2016-04-16T13:05:52.032Z,7982
2016-04-16T13:09:04.962Z,5386
2016-04-16T13:12:17.813Z,6334
2016-04-16T13:15:36.731Z,7698
2016-04-16T13:18:38.739Z,7810
2016-04-16T13:21:51.497Z,6136
2016-04-16T13:25:04.161Z,6128
2016-04-16T13:28:17.060Z,6017
2016-04-16T13:31:35.696Z,6348
2016-04-16T13:34:37.641Z,6277
2016-04-16T13:37:50.399Z,4850
2016-04-16T13:41:03.126Z,2904
2016-04-16T13:44:16.119Z,2555
2016-04-16T13:47:34.895Z,4591
2016-04-16T13:50:42.731Z,7496
2016-04-16T13:53:44.723Z,8169
2016-04-16T13:56:57.653Z,5175
2016-04-16T14:00:10.630Z,3983
2016-04-16T14:03:23.029Z,3265
2016-04-16T14:06:41.633Z,2926
2016-04-16T14:09:43.423Z,3846
2016-04-16T14:12:56.009Z,3940
2016-04-16T14:16:08.579Z,3257
2016-04-16T14:19:21.228Z,2656
2016-04-16T14:22:40.051Z,2430
2016-04-16T14:25:41.903Z,2282
2016-04-16T14:28:54.600Z,2358
2016-04-16T14:32:07.310Z,3159
2016-04-16T14:35:22.240Z,3267
2016-04-16T14:38:39.172Z,3219
2016-04-16T14:41:41.165Z,2833
2016-04-16T14:44:52.438Z,3041
2016-04-16T14:48:05.087Z,2620
2016-04-16T14:51:17.892Z,2457
2016-04-16T14:54:36.934Z,4902
2016-04-16T14:57:38.959Z,2623
2016-04-16T15:00:51.778Z,3705
2016-04-16T15:04:04.865Z,3216
2016-04-16T15:07:17.248Z,1967
2016-04-16T15:10:35.946Z,2115
2016-04-16T15:13:37.783Z,859
2016-04-16T15:16:50.446Z,514
2016-04-16T15:20:03.032Z,453
2016-04-16T15:23:15.479Z,352
2016-04-16T15:26:33.864Z,346
2016-04-16T15:29:41.684Z,762
2016-04-16T15:32:43.317Z,1308
2016-04-16T15:35:53.716Z,1302
2016-04-16T15:39:06.271Z,1574
2016-04-16T15:42:18.842Z,1727
2016-04-16T15:45:36.947Z,2208
2016-04-16T15:48:38.735Z,2480
2016-04-16T15:51:51.697Z,2509
2016-04-16T15:55:04.376Z,2559
2016-04-16T15:58:16.948Z,2179
2016-04-16T16:01:35.662Z,2289
2016-04-16T16:04:37.326Z,1720
2016-04-16T16:07:49.756Z,1278
2016-04-16T16:11:02.092Z,1288
2016-04-16T16:14:14.490Z,1178
2016-04-16T16:17:26.717Z,1109
2016-04-16T16:20:39.321Z,1279
2016-04-16T16:23:52.048Z,1236
2016-04-16T16:27:04.462Z,1222
2016-04-16T16:30:16.674Z,1145
2016-04-16T16:33:35.089Z,1184
2016-04-16T16:36:42.849Z,1741
2016-04-16T16:39:44.419Z,1083
2016-04-16T16:42:56.849Z,939
2016-04-16T16:46:09.608Z,764
2016-04-16T16:49:21.960Z,881
2016-04-16T16:52:40.611Z,1030
2016-04-16T16:55:42.260Z,987
2016-04-16T16:58:54.878Z,1141
2016-04-16T17:02:07.136Z,948
2016-04-16T17:05:19.769Z,804
2016-04-16T17:08:38.483Z,785
2016-04-16T17:11:40.209Z,1049
2016-04-16T17:14:52.749Z,954
2016-04-16T17:18:05.271Z,794
2016-04-16T17:21:17.982Z,752
2016-04-16T17:24:36.570Z,726
2016-04-16T17:27:38.206Z,644
2016-04-16T17:30:50.791Z,643
2016-04-16T17:34:03.331Z,571
2016-04-16T17:37:16.355Z,525
2016-04-16T17:40:25.831Z,481
2016-04-16T17:43:38.514Z,445
2016-04-16T17:46:50.491Z,458
2016-04-16T17:50:02.921Z,395
2016-04-16T17:53:15.350Z,315
2016-04-16T17:56:33.749Z,243
2016-04-16T17:59:41.588Z,206
2016-04-16T18:02:43.034Z,178
2016-04-16T18:05:55.511Z,130
2016-04-16T18:09:08.175Z,86
2016-04-16T18:12:20.626Z,59
2016-04-16T18:15:39.058Z,47
2016-04-16T18:18:40.770Z,35
2016-04-16T18:21:53.090Z,23
2016-04-16T18:25:05.458Z,15
2016-04-16T18:28:17.997Z,9
2016-04-16T18:31:36.505Z,5
2016-04-16T18:34:38.076Z,3
2016-04-16T18:37:50.587Z,2
2016-04-16T18:41:03.173Z,1
2016-04-16T18:44:15.837Z,0
2016-04-16T18:47:34.502Z,0
2016-04-16T18:50:42.230Z,0
2016-04-16T18:53:43.989Z,1
2016-04-16T18:56:53.700Z,1
2016-04-16T19:00:03.146Z,2
2016-04-16T19:03:15.873Z,2
2016-04-16T19:06:34.335Z,2
2016-04-16T19:09:42.079Z,2
2016-04-16T19:12:43.665Z,2
2016-04-16T19:15:56.330Z,2
2016-04-16T19:19:08.947Z,2
2016-04-16T19:22:21.252Z,2
2016-04-16T19:25:39.635Z,2
2016-04-16T19:28:41.302Z,2
2016-04-16T19:31:53.419Z,2
2016-04-16T19:35:05.787Z,2
2016-04-16T19:38:16.796Z,2
2016-04-16T19:41:34.647Z,2
2016-04-16T19:44:42.298Z,2
2016-04-16T19:47:43.712Z,2
2016-04-16T19:50:56.095Z,2
2016-04-16T19:54:08.385Z,2
2016-04-16T19:57:20.924Z,2
2016-04-16T20:00:39.277Z,2
2016-04-16T20:03:40.816Z,2
2016-04-16T20:06:53.677Z,2
2016-04-16T20:10:05.598Z,2
2016-04-16T20:13:17.949Z,2
2016-04-16T20:16:35.646Z,2
2016-04-16T20:19:37.232Z,2
2016-04-16T20:22:49.633Z,2
2016-04-16T20:26:02.062Z,2
2016-04-16T20:29:14.384Z,2
2016-04-16T20:32:26.486Z,2
2016-04-16T20:35:38.524Z,2
2016-04-16T20:38:47.472Z,2
2016-04-16T20:41:59.762Z,2
2016-04-16T20:45:09.630Z,2
2016-04-16T20:48:19.247Z,2
2016-04-16T20:51:37.379Z,2
2016-04-16T20:54:38.622Z,2
2016-04-16T20:57:50.673Z,2
2016-04-16T21:01:00.663Z,2
2016-04-16T21:04:13.019Z,2
2016-04-16T21:07:25.222Z,2
2016-04-16T21:10:37.653Z,2
2016-04-16T21:13:50.130Z,2
2016-04-16T21:17:02.394Z,2
2016-04-16T21:20:14.545Z,2
2016-04-16T21:23:26.835Z,2
2016-04-16T21:26:42.689Z,2
2016-04-16T21:29:44.150Z,2
2016-04-16T21:32:55.520Z,2
2016-04-16T21:36:07.591Z,2
2016-04-16T21:39:20.051Z,2
2016-04-16T21:42:38.482Z,2
2016-04-16T21:45:40.240Z,2
2016-04-16T21:48:52.562Z,2
2016-04-16T21:52:05.274Z,2
2016-04-16T21:55:17.203Z,2
2016-04-16T21:58:35.494Z,2
2016-04-16T22:01:42.877Z,2
2016-04-16T22:04:44.291Z,2
2016-04-16T22:07:56.677Z,2
2016-04-16T22:11:09.184Z,2
2016-04-16T22:14:21.599Z,2
2016-04-16T22:17:39.685Z,3
2016-04-16T22:20:41.193Z,2
2016-04-16T22:23:53.602Z,2
2016-04-16T22:27:05.985Z,2
2016-04-16T22:30:18.493Z,2
2016-04-16T22:33:35.751Z,2
2016-04-16T22:36:43.149Z,2
2016-04-16T22:39:44.595Z,2
2016-04-16T22:42:57.231Z,2
2016-04-16T22:46:09.645Z,3
2016-04-16T22:49:22.341Z,2
2016-04-16T22:52:40.802Z,2
2016-04-16T22:55:42.247Z,2
2016-04-16T22:58:54.789Z,2
2016-04-16T23:02:07.407Z,2
2016-04-16T23:05:20.071Z,3
2016-04-16T23:08:38.626Z,2
2016-04-16T23:11:40.118Z,3
2016-04-16T23:14:52.301Z,2
2016-04-16T23:18:04.762Z,2
2016-04-16T23:21:17.130Z,2
2016-04-16T23:24:35.653Z,2
2016-04-16T23:27:43.177Z,2
2016-04-16T23:30:44.716Z,2
2016-04-16T23:33:54.977Z,2
2016-04-16T23:37:07.407Z,2
2016-04-16T23:40:20.134Z,2
2016-04-16T23:43:38.319Z,2
2016-04-16T23:46:39.812Z,2
2016-04-16T23:49:52.166Z,2
2016-04-16T23:53:04.299Z,2
2016-04-16T23:56:16.994Z,2
2016-04-16T23:59:35.612Z,2
